Time;durP1;ratioP1;P1;durP2;ratioP2;P2;SDS_P1;SDS_P2;PMS_P1;PMS_P2;Temp;Humidity;BMP_temperature;BMP_pressure;BME280_temperature;BME280_humidity;BME280_pressure;Samples;Min_cycle;Max_cycle;Signal;HPM_P1;HPM_P2
2022/07/11 00:00:00;;;;;;;1.70;0.80;;;;;;;;;;5077562;28;20208;-38
2022/07/11 00:02:28;;;;;;;1.90;0.87;;;;;;;;;;5100064;28;20196;-41
2022/07/11 00:04:56;;;;;;;1.97;1.07;;;;;;;;;;5092086;28;20244;-43
2022/07/11 00:07:23;;;;;;;1.47;1.00;;;;;;;;;;5098353;28;20228;-38
2022/07/11 00:09:51;;;;;;;1.50;0.70;;;;;;;;;;5097935;28;20214;-38
2022/07/11 00:12:20;;;;;;;1.10;0.97;;;;;;;;;;5077336;28;20201;-40
2022/07/11 00:14:47;;;;;;;1.40;1.20;;;;;;;;;;5091610;28;20263;-44
2022/07/11 00:17:14;;;;;;;0.90;0.90;;;;;;;;;;5099928;28;20232;-43
2022/07/11 00:19:42;;;;;;;0.87;0.83;;;;;;;;;;5083487;28;20226;-42
2022/07/11 00:22:10;;;;;;;1.00;0.83;;;;;;;;;;5076969;28;20209;-40
2022/07/11 00:24:37;;;;;;;3.10;1.10;;;;;;;;;;5087034;28;20200;-41
2022/07/11 00:27:05;;;;;;;1.57;1.23;;;;;;;;;;5082909;28;20228;-39
2022/07/11 00:29:32;;;;;;;1.50;0.87;;;;;;;;;;5087877;28;20200;-44
2022/07/11 00:32:00;;;;;;;0.83;0.83;;;;;;;;;;5107480;28;20204;-43
2022/07/11 00:34:27;;;;;;;0.70;0.70;;;;;;;;;;5095125;28;20200;-44
2022/07/11 00:36:54;;;;;;;1.00;0.90;;;;;;;;;;5099999;28;20243;-40
2022/07/11 00:39:23;;;;;;;1.63;0.83;;;;;;;;;;5107786;28;20203;-44
2022/07/11 00:41:51;;;;;;;2.17;1.00;;;;;;;;;;5108158;28;20204;-45
2022/07/11 00:44:18;;;;;;;1.40;0.90;;;;;;;;;;5090017;28;20639;-43
2022/07/11 00:46:45;;;;;;;1.20;0.70;;;;;;;;;;5106766;28;20230;-42
2022/07/11 00:49:12;;;;;;;1.70;0.93;;;;;;;;;;5095610;28;20671;-43
2022/07/11 00:51:40;;;;;;;0.90;0.90;;;;;;;;;;5094930;28;20291;-42
2022/07/11 00:54:09;;;;;;;0.80;0.80;;;;;;;;;;5108818;28;20199;-42
2022/07/11 00:56:37;;;;;;;0.80;0.80;;;;;;;;;;5098495;28;20217;-41
2022/07/11 00:59:05;;;;;;;0.77;0.77;;;;;;;;;;5068764;28;20213;-40
2022/07/11 01:01:34;;;;;;;1.33;1.13;;;;;;;;;;5063599;28;20209;-43
2022/07/11 01:04:01;;;;;;;0.80;0.80;;;;;;;;;;5062937;28;20264;-40
2022/07/11 01:06:28;;;;;;;2.23;1.00;;;;;;;;;;5073660;28;20263;-45
2022/07/11 01:08:55;;;;;;;2.63;0.70;;;;;;;;;;5092045;28;20205;-39
2022/07/11 01:11:23;;;;;;;1.60;1.17;;;;;;;;;;5094719;28;20291;-43
2022/07/11 01:13:52;;;;;;;2.00;0.97;;;;;;;;;;5079490;28;20648;-43
2022/07/11 01:16:21;;;;;;;4.63;1.27;;;;;;;;;;5071969;28;20216;-39
2022/07/11 01:18:49;;;;;;;2.17;0.80;;;;;;;;;;5068338;28;20208;-42
2022/07/11 01:21:21;;;;;;;1.93;1.00;;;;;;;;;;5079874;28;20205;-39
2022/07/11 01:23:50;;;;;;;1.53;0.87;;;;;;;;;;5092775;28;20192;-43
2022/07/11 01:26:19;;;;;;;1.37;1.00;;;;;;;;;;5092695;28;20316;-41
2022/07/11 01:28:46;;;;;;;3.33;1.20;;;;;;;;;;5068978;28;20201;-41
2022/07/11 01:31:13;;;;;;;1.10;0.80;;;;;;;;;;5083221;28;20201;-40
2022/07/11 01:33:41;;;;;;;1.00;0.87;;;;;;;;;;5086649;28;20205;-43
2022/07/11 01:36:08;;;;;;;2.43;0.90;;;;;;;;;;5074133;28;20229;-38
2022/07/11 01:38:35;;;;;;;0.97;0.97;;;;;;;;;;5092148;28;20205;-44
2022/07/11 01:41:04;;;;;;;0.70;0.70;;;;;;;;;;5088271;28;20202;-44
2022/07/11 01:43:31;;;;;;;1.10;0.90;;;;;;;;;;5063463;28;20218;-45
2022/07/11 01:45:58;;;;;;;0.97;0.93;;;;;;;;;;5069923;28;20214;-42
2022/07/11 01:48:26;;;;;;;0.90;0.80;;;;;;;;;;5087552;28;20536;-41
2022/07/11 01:50:55;;;;;;;1.93;1.00;;;;;;;;;;5068341;28;20210;-42
2022/07/11 01:53:22;;;;;;;1.23;0.90;;;;;;;;;;5092100;28;20282;-42
2022/07/11 01:55:49;;;;;;;1.87;1.00;;;;;;;;;;5087720;28;20647;-41
2022/07/11 01:58:18;;;;;;;3.23;1.23;;;;;;;;;;5066280;28;20202;-43
2022/07/11 02:00:45;;;;;;;3.37;0.90;;;;;;;;;;5077901;28;20208;-39
2022/07/11 02:03:12;;;;;;;1.30;1.20;;;;;;;;;;5091157;28;20232;-45
2022/07/11 02:05:40;;;;;;;0.80;0.80;;;;;;;;;;5066364;28;20215;-41
2022/07/11 02:08:14;;;;;;;1.00;1.00;;;;;;;;;;5088738;28;20235;-41
2022/07/11 02:10:42;;;;;;;1.07;0.90;;;;;;;;;;5077829;28;20209;-41
2022/07/11 02:13:10;;;;;;;1.90;0.80;;;;;;;;;;5071868;28;20209;-42
2022/07/11 02:15:39;;;;;;;2.40;1.00;;;;;;;;;;5073180;28;20219;-39
2022/07/11 02:18:06;;;;;;;2.30;1.20;;;;;;;;;;5089149;28;20220;-43
2022/07/11 02:20:34;;;;;;;1.00;0.90;;;;;;;;;;5065592;28;20284;-42
2022/07/11 02:23:01;;;;;;;1.43;0.90;;;;;;;;;;5070270;28;20262;-43
2022/07/11 02:25:29;;;;;;;1.83;1.03;;;;;;;;;;5070328;28;20250;-43
2022/07/11 02:27:56;;;;;;;4.20;1.10;;;;;;;;;;5060972;28;20229;-43
2022/07/11 02:30:23;;;;;;;1.10;1.00;;;;;;;;;;5071768;28;20201;-40
2022/07/11 02:32:52;;;;;;;1.73;1.00;;;;;;;;;;5079138;28;20207;-43
2022/07/11 02:35:20;;;;;;;1.60;0.80;;;;;;;;;;5056672;28;20201;-41
2022/07/11 02:37:48;;;;;;;4.37;1.10;;;;;;;;;;5074705;28;20217;-37
2022/07/11 02:40:16;;;;;;;1.80;0.90;;;;;;;;;;5090590;28;20205;-42
2022/07/11 02:42:43;;;;;;;1.73;0.90;;;;;;;;;;5077734;28;20218;-45
2022/07/11 02:45:11;;;;;;;1.20;1.03;;;;;;;;;;5064133;28;20201;-42
2022/07/11 02:47:39;;;;;;;1.23;0.90;;;;;;;;;;5089936;28;20312;-42
2022/07/11 02:50:09;;;;;;;8.90;0.93;;;;;;;;;;5069810;28;20210;-42
2022/07/11 02:52:36;;;;;;;6.50;1.47;;;;;;;;;;5076527;28;20220;-44
2022/07/11 02:55:03;;;;;;;2.80;1.33;;;;;;;;;;5088362;28;20193;-41
2022/07/11 02:57:30;;;;;;;1.17;1.00;;;;;;;;;;5090566;28;20532;-44
2022/07/11 02:59:57;;;;;;;0.90;0.90;;;;;;;;;;5071421;28;20571;-43
2022/07/11 03:02:25;;;;;;;2.33;1.10;;;;;;;;;;5082843;28;20207;-40
2022/07/11 03:04:52;;;;;;;1.30;1.20;;;;;;;;;;5068224;28;20205;-42
2022/07/11 03:07:20;;;;;;;1.90;1.10;;;;;;;;;;5081961;28;20228;-39
2022/07/11 03:09:47;;;;;;;1.70;1.10;;;;;;;;;;5090195;28;20201;-46
2022/07/11 03:12:15;;;;;;;1.93;0.90;;;;;;;;;;5088993;28;20213;-43
2022/07/11 03:14:42;;;;;;;1.67;1.00;;;;;;;;;;5070292;28;20595;-46
2022/07/11 03:17:09;;;;;;;1.53;0.90;;;;;;;;;;5080393;28;20281;-46
2022/07/11 03:19:37;;;;;;;0.90;0.90;;;;;;;;;;5073892;28;20204;-45
2022/07/11 03:22:04;;;;;;;1.57;1.20;;;;;;;;;;5083694;28;20211;-43
2022/07/11 03:24:33;;;;;;;4.83;1.10;;;;;;;;;;5089673;28;20212;-42
2022/07/11 03:27:00;;;;;;;1.80;1.10;;;;;;;;;;5087161;28;20217;-44
2022/07/11 03:29:27;;;;;;;0.90;0.90;;;;;;;;;;5063402;28;20210;-42
2022/07/11 03:31:54;;;;;;;0.87;0.87;;;;;;;;;;5083200;28;20207;-38
2022/07/11 03:34:21;;;;;;;1.13;1.13;;;;;;;;;;5077604;28;20208;-44
2022/07/11 03:36:48;;;;;;;1.13;1.03;;;;;;;;;;5072092;28;20224;-41
2022/07/11 03:39:15;;;;;;;0.90;0.90;;;;;;;;;;5089451;28;20211;-44
2022/07/11 03:41:44;;;;;;;2.97;1.10;;;;;;;;;;5090038;28;20212;-45
2022/07/11 03:44:11;;;;;;;0.80;0.80;;;;;;;;;;5058062;28;20233;-44
2022/07/11 03:46:38;;;;;;;0.90;0.90;;;;;;;;;;5071899;28;20224;-45
2022/07/11 03:51:33;;;;;;;3.57;1.10;;;;;;;;;;5023584;28;20214;-42
2022/07/11 03:54:01;;;;;;;2.37;1.00;;;;;;;;;;5030131;28;20210;-41
2022/07/11 03:56:28;;;;;;;1.60;1.00;;;;;;;;;;5031616;28;20227;-36
2022/07/11 03:58:56;;;;;;;1.13;1.00;;;;;;;;;;5020011;28;20225;-39
2022/07/11 04:01:23;;;;;;;1.83;1.00;;;;;;;;;;5031616;28;20201;-38
2022/07/11 04:03:51;;;;;;;2.27;1.30;;;;;;;;;;5017636;28;20190;-40
2022/07/11 04:06:18;;;;;;;2.40;0.87;;;;;;;;;;5015716;28;20219;-36
2022/07/11 04:08:45;;;;;;;1.37;1.20;;;;;;;;;;5028446;28;20226;-37
2022/07/11 04:11:12;;;;;;;1.67;1.00;;;;;;;;;;5027622;28;20211;-38
2022/07/11 04:13:39;;;;;;;1.57;1.10;;;;;;;;;;5022242;28;20198;-39
2022/07/11 04:16:08;;;;;;;3.33;1.30;;;;;;;;;;5029539;28;20203;-43
2022/07/11 04:18:35;;;;;;;1.47;1.00;;;;;;;;;;5028714;28;20203;-34
2022/07/11 04:21:02;;;;;;;1.20;1.10;;;;;;;;;;5024080;28;20203;-39
2022/07/11 04:23:29;;;;;;;2.37;0.97;;;;;;;;;;5031131;28;20198;-36
2022/07/11 04:25:56;;;;;;;2.43;1.10;;;;;;;;;;5032045;28;20203;-34
2022/07/11 04:28:23;;;;;;;10.70;1.43;;;;;;;;;;5023296;28;20211;-39
2022/07/11 04:30:51;;;;;;;1.93;1.30;;;;;;;;;;5019969;28;20207;-40
2022/07/11 04:33:19;;;;;;;2.30;1.20;;;;;;;;;;5012601;28;20203;-37
2022/07/11 04:35:46;;;;;;;1.60;1.10;;;;;;;;;;5025911;28;20206;-40
2022/07/11 04:38:13;;;;;;;0.97;0.97;;;;;;;;;;5031199;28;20226;-32
2022/07/11 04:40:41;;;;;;;2.27;1.40;;;;;;;;;;5013436;28;20195;-39
2022/07/11 04:43:08;;;;;;;1.23;1.20;;;;;;;;;;5014363;28;20329;-39
2022/07/11 04:45:35;;;;;;;2.93;1.10;;;;;;;;;;5031620;28;20206;-39
2022/07/11 04:48:02;;;;;;;2.40;1.17;;;;;;;;;;5034666;28;20219;-36
2022/07/11 04:50:31;;;;;;;1.07;1.07;;;;;;;;;;5023852;28;20213;-35
2022/07/11 04:52:58;;;;;;;1.83;1.30;;;;;;;;;;5031891;28;20202;-33
2022/07/11 04:55:25;;;;;;;1.23;1.10;;;;;;;;;;5028245;28;20211;-40
2022/07/11 04:57:53;;;;;;;2.20;1.23;;;;;;;;;;5025886;28;20242;-37
2022/07/11 05:00:20;;;;;;;1.00;1.00;;;;;;;;;;5022884;28;20255;-36
2022/07/11 05:02:47;;;;;;;2.40;1.20;;;;;;;;;;5019725;28;20202;-42
2022/07/11 05:05:14;;;;;;;2.60;1.10;;;;;;;;;;5024261;28;20202;-35
2022/07/11 05:07:43;;;;;;;2.23;1.10;;;;;;;;;;5030847;28;20365;-37
2022/07/11 05:10:10;;;;;;;1.10;1.00;;;;;;;;;;5034586;28;20199;-37
2022/07/11 05:12:37;;;;;;;1.20;1.07;;;;;;;;;;5024885;28;20210;-35
2022/07/11 05:15:05;;;;;;;1.70;1.00;;;;;;;;;;5021249;28;20209;-40
2022/07/11 05:17:32;;;;;;;1.60;1.30;;;;;;;;;;5034536;28;20219;-36
2022/07/11 05:19:59;;;;;;;2.97;1.20;;;;;;;;;;5031284;28;20217;-36
2022/07/11 05:22:26;;;;;;;1.20;1.00;;;;;;;;;;5033689;28;20205;-37
2022/07/11 05:25:01;;;;;;;0.97;0.97;;;;;;;;;;5031387;28;20208;-41
2022/07/11 05:27:28;;;;;;;1.50;1.17;;;;;;;;;;5029777;28;20257;-38
2022/07/11 05:29:55;;;;;;;2.93;1.23;;;;;;;;;;5105315;22;20225;-29
2022/07/11 05:32:22;;;;;;;1.20;1.10;;;;;;;;;;5034790;28;20194;-32
2022/07/11 05:34:50;;;;;;;1.97;1.10;;;;;;;;;;5034571;28;20205;-28
2022/07/11 05:37:17;;;;;;;1.37;1.20;;;;;;;;;;5081213;22;20247;-32
2022/07/11 05:39:44;;;;;;;1.27;0.90;;;;;;;;;;5096161;28;20200;-32
2022/07/11 05:42:14;;;;;;;1.30;1.20;;;;;;;;;;5087099;28;20201;-28
2022/07/11 05:44:41;;;;;;;1.70;1.00;;;;;;;;;;5079622;28;20205;-31
2022/07/11 05:47:08;;;;;;;1.57;1.20;;;;;;;;;;5085138;28;20219;-32
2022/07/11 05:49:35;;;;;;;1.10;0.90;;;;;;;;;;5088472;28;20208;-30
2022/07/11 05:52:02;;;;;;;1.47;1.20;;;;;;;;;;5084090;28;20204;-28
2022/07/11 05:54:30;;;;;;;1.10;1.10;;;;;;;;;;5080543;28;20284;-33
2022/07/11 05:56:57;;;;;;;1.17;1.17;;;;;;;;;;5074419;28;20223;-31
2022/07/11 05:59:26;;;;;;;2.30;1.20;;;;;;;;;;5077700;28;20249;-34
2022/07/11 06:01:53;;;;;;;1.83;1.30;;;;;;;;;;5084658;28;20201;-33
2022/07/11 06:04:20;;;;;;;2.17;1.20;;;;;;;;;;5072850;28;20206;-32
2022/07/11 06:06:47;;;;;;;2.03;1.20;;;;;;;;;;5083384;28;20259;-30
2022/07/11 06:09:13;;;;;;;5.10;1.10;;;;;;;;;;5074451;28;20226;-29
2022/07/11 06:11:41;;;;;;;3.37;1.00;;;;;;;;;;5075561;28;20197;-29
2022/07/11 06:14:08;;;;;;;1.77;1.50;;;;;;;;;;5083747;28;20202;-30
2022/07/11 06:16:36;;;;;;;1.67;1.13;;;;;;;;;;5079020;28;20228;-31
2022/07/11 06:19:05;;;;;;;1.77;1.10;;;;;;;;;;5075015;28;20204;-32
2022/07/11 06:21:33;;;;;;;3.27;1.20;;;;;;;;;;5085922;28;20202;-33
2022/07/11 06:24:00;;;;;;;1.67;1.20;;;;;;;;;;5093445;28;20200;-32
2022/07/11 06:26:27;;;;;;;1.70;1.23;;;;;;;;;;5094155;28;20251;-31
2022/07/11 06:28:55;;;;;;;3.27;1.37;;;;;;;;;;5077548;28;20225;-29
2022/07/11 06:31:22;;;;;;;1.30;1.20;;;;;;;;;;5077637;28;20197;-31
2022/07/11 06:33:54;;;;;;;2.27;1.30;;;;;;;;;;5078717;28;20230;-31
2022/07/11 06:36:22;;;;;;;2.47;1.30;;;;;;;;;;5082023;28;20229;-31
2022/07/11 06:38:49;;;;;;;3.33;1.17;;;;;;;;;;5089507;28;20313;-30
2022/07/11 06:41:17;;;;;;;1.70;1.10;;;;;;;;;;5091042;28;20210;-29
2022/07/11 06:43:44;;;;;;;1.10;1.10;;;;;;;;;;5084090;28;20205;-30
2022/07/11 06:46:12;;;;;;;1.23;1.13;;;;;;;;;;5084753;28;20227;-31
2022/07/11 06:48:39;;;;;;;1.37;1.13;;;;;;;;;;5090857;28;20252;-31
2022/07/11 06:51:09;;;;;;;3.57;1.40;;;;;;;;;;5075880;28;20205;-31
2022/07/11 06:53:36;;;;;;;1.30;1.20;;;;;;;;;;5081615;28;20202;-30
2022/07/11 06:56:03;;;;;;;2.13;1.30;;;;;;;;;;5074067;28;20202;-32
2022/07/11 06:58:33;;;;;;;2.17;1.50;;;;;;;;;;5083957;28;20201;-31
2022/07/11 07:01:00;;;;;;;1.27;1.10;;;;;;;;;;5094807;28;20232;-30
2022/07/11 07:03:28;;;;;;;6.10;1.37;;;;;;;;;;5092680;28;20213;-30
2022/07/11 07:05:55;;;;;;;3.83;1.50;;;;;;;;;;5083150;28;20208;-30
2022/07/11 07:08:25;;;;;;;1.57;1.30;;;;;;;;;;5075485;28;20210;-31
2022/07/11 07:10:52;;;;;;;1.20;1.10;;;;;;;;;;5082171;28;20198;-30
2022/07/11 07:13:20;;;;;;;5.40;1.90;;;;;;;;;;5094518;28;20201;-28
2022/07/11 07:15:47;;;;;;;2.40;1.50;;;;;;;;;;5091556;28;20231;-28
2022/07/11 07:18:14;;;;;;;1.57;1.47;;;;;;;;;;5082415;28;20216;-29
2022/07/11 07:20:41;;;;;;;2.00;1.50;;;;;;;;;;5088853;28;20205;-30
2022/07/11 07:23:08;;;;;;;1.77;1.57;;;;;;;;;;5092207;28;20201;-33
2022/07/11 07:25:38;;;;;;;2.37;1.57;;;;;;;;;;5093942;28;20232;-31
2022/07/11 07:28:05;;;;;;;2.90;1.53;;;;;;;;;;5092403;28;20226;-32
2022/07/11 07:30:33;;;;;;;1.50;1.40;;;;;;;;;;5073852;28;20260;-31
2022/07/11 07:33:00;;;;;;;1.70;1.60;;;;;;;;;;5073544;28;20210;-34
2022/07/11 07:35:27;;;;;;;2.07;1.53;;;;;;;;;;5077212;28;20200;-33
2022/07/11 07:37:55;;;;;;;2.20;1.63;;;;;;;;;;5090050;28;20234;-30
2022/07/11 07:40:22;;;;;;;2.43;1.40;;;;;;;;;;5093068;28;20203;-31
2022/07/11 07:42:51;;;;;;;1.43;1.33;;;;;;;;;;5092468;28;20224;-31
2022/07/11 07:45:18;;;;;;;1.50;1.40;;;;;;;;;;5080244;28;20198;-29
2022/07/11 07:47:45;;;;;;;1.53;1.40;;;;;;;;;;5080756;28;20219;-31
2022/07/11 07:50:12;;;;;;;3.50;1.60;;;;;;;;;;5084872;28;20218;-30
2022/07/11 07:52:39;;;;;;;2.23;1.80;;;;;;;;;;5089506;28;20203;-32
2022/07/11 07:55:08;;;;;;;1.40;1.30;;;;;;;;;;5074074;28;20200;-31
2022/07/11 07:57:37;;;;;;;2.27;1.67;;;;;;;;;;5073635;28;20235;-30
2022/07/11 08:02:50;;;;;;;1.70;1.60;;;;;;;;;;5088491;28;20207;-34
2022/07/11 08:05:18;;;;;;;1.47;1.37;;;;;;;;;;5077891;28;20258;-32
2022/07/11 08:07:46;;;;;;;2.03;1.63;;;;;;;;;;5092619;28;20228;-31
2022/07/11 08:10:14;;;;;;;3.10;1.70;;;;;;;;;;5091433;28;20222;-32
2022/07/11 08:12:41;;;;;;;1.50;1.40;;;;;;;;;;5092461;28;20200;-32
2022/07/11 08:15:11;;;;;;;1.50;1.40;;;;;;;;;;5077548;28;20202;-28
2022/07/11 08:17:38;;;;;;;2.03;1.60;;;;;;;;;;5085791;28;20463;-28
2022/07/11 08:20:06;;;;;;;1.65;1.55;;;;;;;;;;5089512;28;20309;-33
2022/07/11 08:22:33;;;;;;;1.45;1.35;;;;;;;;;;5095600;28;20200;-31
2022/07/11 08:25:00;;;;;;;1.75;1.10;;;;;;;;;;5095605;28;20203;-31
2022/07/11 08:27:27;;;;;;;1.80;1.23;;;;;;;;;;5087310;28;20219;-32
2022/07/11 08:29:54;;;;;;;4.22;1.23;;;;;;;;;;5077394;28;20307;-34
2022/07/11 08:32:23;;;;;;;1.20;1.10;;;;;;;;;;5083076;28;20205;-33
2022/07/11 08:34:50;;;;;;;1.23;0.93;;;;;;;;;;5080497;28;20206;-32
2022/07/11 08:37:18;;;;;;;1.85;1.35;;;;;;;;;;5085249;28;20247;-34
2022/07/11 08:39:45;;;;;;;1.63;1.17;;;;;;;;;;5077697;28;20225;-30
2022/07/11 08:42:12;;;;;;;1.20;1.10;;;;;;;;;;5073913;28;20198;-33
2022/07/11 08:44:41;;;;;;;1.35;0.98;;;;;;;;;;5079754;28;20196;-31
2022/07/11 08:47:08;;;;;;;1.67;0.90;;;;;;;;;;5094754;28;20248;-30
2022/07/11 08:49:37;;;;;;;0.85;0.80;;;;;;;;;;5087690;28;20220;-33
2022/07/11 08:52:04;;;;;;;0.80;0.80;;;;;;;;;;5090938;28;20196;-30
2022/07/11 08:54:31;;;;;;;0.90;0.90;;;;;;;;;;5072908;28;20201;-31
2022/07/11 08:56:59;;;;;;;7.35;0.80;;;;;;;;;;5073617;28;20304;-28
2022/07/11 08:59:29;;;;;;;0.70;0.70;;;;;;;;;;5076401;28;20247;-35
2022/07/11 09:01:56;;;;;;;1.85;0.50;;;;;;;;;;5077129;28;20316;-32
2022/07/11 09:04:24;;;;;;;0.50;0.50;;;;;;;;;;5082527;28;20232;-31
2022/07/11 09:06:53;;;;;;;0.50;0.50;;;;;;;;;;5088084;28;20255;-33
2022/07/11 09:09:20;;;;;;;0.60;0.60;;;;;;;;;;5087341;28;20212;-32
2022/07/11 09:11:51;;;;;;;1.08;0.80;;;;;;;;;;5078036;28;20213;-32
2022/07/11 09:14:23;;;;;;;0.75;0.75;;;;;;;;;;5079349;28;20205;-31
2022/07/11 09:16:54;;;;;;;1.23;0.60;;;;;;;;;;5076915;28;20216;-32
2022/07/11 09:19:25;;;;;;;1.17;0.80;;;;;;;;;;5079423;28;20198;-33
2022/07/11 09:27:48;;;;;;;0.88;0.82;;;;;;;;;;5074328;28;20219;-33
2022/07/11 09:30:23;;;;;;;1.83;1.45;;;;;;;;;;5081579;28;20299;-32
2022/07/11 09:32:54;;;;;;;0.90;0.90;;;;;;;;;;5093324;28;20196;-32
2022/07/11 09:35:21;;;;;;;0.77;0.77;;;;;;;;;;5089526;28;20197;-29
2022/07/11 09:37:50;;;;;;;1.00;0.90;;;;;;;;;;5090166;28;20232;-33
2022/07/11 09:40:18;;;;;;;0.90;0.90;;;;;;;;;;5094313;28;20200;-29
2022/07/11 09:42:48;;;;;;;0.80;0.80;;;;;;;;;;5078845;28;20197;-31
2022/07/11 09:45:16;;;;;;;0.90;0.90;;;;;;;;;;5085440;28;20196;-32
2022/07/11 09:47:44;;;;;;;1.63;1.20;;;;;;;;;;5093618;28;20224;-32
2022/07/11 09:52:40;;;;;;;0.73;0.73;;;;;;;;;;5057027;28;20218;-41
2022/07/11 09:55:09;;;;;;;0.90;0.90;;;;;;;;;;5055122;28;20202;-44
2022/07/11 09:57:37;;;;;;;0.60;0.60;;;;;;;;;;5040900;28;20235;-42
2022/07/11 10:00:05;;;;;;;0.80;0.80;;;;;;;;;;5034733;28;20214;-38
2022/07/11 10:02:32;;;;;;;0.68;0.68;;;;;;;;;;5046143;28;20241;-42
2022/07/11 10:05:00;;;;;;;1.75;0.60;;;;;;;;;;5024404;28;20211;-42
2022/07/11 10:07:27;;;;;;;0.80;0.80;;;;;;;;;;5034968;28;20588;-42
2022/07/11 10:09:54;;;;;;;0.80;0.80;;;;;;;;;;5036487;28;20222;-39
2022/07/11 10:12:23;;;;;;;0.90;0.70;;;;;;;;;;5028308;28;20203;-39
2022/07/11 10:14:51;;;;;;;0.70;0.70;;;;;;;;;;5021746;28;20206;-42
2022/07/11 10:17:24;;;;;;;0.80;0.80;;;;;;;;;;5035503;28;20226;-42
2022/07/11 10:19:56;;;;;;;0.98;0.90;;;;;;;;;;5027055;28;20203;-41
2022/07/11 10:22:26;;;;;;;1.00;0.90;;;;;;;;;;5030341;28;20202;-44
2022/07/11 10:24:56;;;;;;;2.67;1.20;;;;;;;;;;5033221;28;20209;-42
2022/07/11 10:27:29;;;;;;;1.00;0.90;;;;;;;;;;5030738;28;20218;-40
2022/07/11 10:29:56;;;;;;;0.77;0.77;;;;;;;;;;5026748;28;20237;-40
2022/07/11 10:32:23;;;;;;;0.80;0.73;;;;;;;;;;5032791;28;20198;-36
2022/07/11 10:35:05;;;;;;;0.80;0.80;;;;;;;;;;5026446;28;20427;-38
2022/07/11 10:37:46;;;;;;;0.80;0.80;;;;;;;;;;5034316;28;20250;-42
2022/07/11 10:40:14;;;;;;;4.63;0.90;;;;;;;;;;5022684;28;20199;-42
2022/07/11 10:42:43;;;;;;;0.80;0.80;;;;;;;;;;5025495;28;20672;-40
2022/07/11 10:45:11;;;;;;;0.70;0.70;;;;;;;;;;5032186;28;20202;-43
2022/07/11 10:47:42;;;;;;;1.25;0.90;;;;;;;;;;5032745;28;20222;-43
2022/07/11 10:50:15;;;;;;;0.87;0.87;;;;;;;;;;5028873;28;20646;-42
2022/07/11 10:52:43;;;;;;;0.70;0.70;;;;;;;;;;5028843;28;20214;-42
2022/07/11 10:55:31;;;;;;;1.63;0.70;;;;;;;;;;5051868;28;20209;-42
2022/07/11 10:58:04;;;;;;;0.75;0.75;;;;;;;;;;5049317;28;20229;-43
2022/07/11 11:00:31;;;;;;;0.83;0.80;;;;;;;;;;5016019;28;20195;-40
2022/07/11 11:03:03;;;;;;;0.80;0.80;;;;;;;;;;5030759;28;20233;-40
2022/07/11 11:05:44;;;;;;;0.80;0.80;;;;;;;;;;5021849;28;20199;-39
2022/07/11 11:08:30;;;;;;;0.73;0.73;;;;;;;;;;5039533;28;20221;-41
2022/07/11 11:10:57;;;;;;;0.70;0.70;;;;;;;;;;5032684;28;20222;-42
2022/07/11 11:13:25;;;;;;;1.65;0.93;;;;;;;;;;5020758;28;20199;-41
2022/07/11 11:15:54;;;;;;;1.17;0.80;;;;;;;;;;5022111;28;20217;-44
2022/07/11 11:18:39;;;;;;;0.75;0.73;;;;;;;;;;5030010;28;20211;-44
2022/07/11 11:21:19;;;;;;;0.70;0.70;;;;;;;;;;5026227;28;20206;-38
2022/07/11 11:23:47;;;;;;;0.77;0.77;;;;;;;;;;5040359;28;20208;-44
2022/07/11 11:26:15;;;;;;;0.63;0.63;;;;;;;;;;5032018;28;20237;-44
2022/07/11 11:28:57;;;;;;;1.20;0.90;;;;;;;;;;5024409;28;20213;-44
2022/07/11 11:31:24;;;;;;;1.33;0.90;;;;;;;;;;5022097;28;20198;-39
2022/07/11 11:33:51;;;;;;;0.90;0.90;;;;;;;;;;5026255;28;20210;-37
2022/07/11 11:36:19;;;;;;;0.70;0.70;;;;;;;;;;5024313;28;20715;-42
2022/07/11 11:38:48;;;;;;;1.52;0.80;;;;;;;;;;5032277;28;20206;-41
2022/07/11 11:41:15;;;;;;;0.68;0.68;;;;;;;;;;5032158;28;20268;-39
2022/07/11 11:43:45;;;;;;;0.70;0.70;;;;;;;;;;5028451;28;20237;-43
2022/07/11 11:46:14;;;;;;;1.13;0.70;;;;;;;;;;5034345;28;20299;-36
2022/07/11 11:48:45;;;;;;;1.02;0.70;;;;;;;;;;5030265;28;20217;-40
2022/07/11 11:51:13;;;;;;;1.02;0.77;;;;;;;;;;5031145;28;20236;-38
2022/07/11 11:53:41;;;;;;;0.85;0.85;;;;;;;;;;5051660;28;20202;-37
2022/07/11 11:56:16;;;;;;;0.80;0.80;;;;;;;;;;5051917;28;20259;-40
2022/07/11 11:58:43;;;;;;;1.25;0.80;;;;;;;;;;5025569;28;20205;-38
2022/07/11 12:01:10;;;;;;;0.73;0.73;;;;;;;;;;5035051;28;20206;-38
2022/07/11 12:03:52;;;;;;;0.73;0.70;;;;;;;;;;5022035;28;20679;-39
2022/07/11 12:06:22;;;;;;;0.90;0.90;;;;;;;;;;5020516;28;20218;-43
2022/07/11 12:08:49;;;;;;;1.10;1.00;;;;;;;;;;5047924;28;20198;-42
2022/07/11 12:11:17;;;;;;;0.88;0.88;;;;;;;;;;5052439;28;20237;-41
2022/07/11 12:13:44;;;;;;;0.70;0.70;;;;;;;;;;5032143;28;20218;-38
2022/07/11 12:19:01;;;;;;;1.10;1.00;;;;;;;;;;5029338;28;20236;-42
2022/07/11 12:21:30;;;;;;;2.53;0.95;;;;;;;;;;5033503;28;20199;-38
2022/07/11 12:23:58;;;;;;;1.85;0.80;;;;;;;;;;5031719;28;20206;-41
2022/07/11 12:26:25;;;;;;;1.13;0.80;;;;;;;;;;5032155;28;20232;-36
2022/07/11 12:29:05;;;;;;;1.13;1.02;;;;;;;;;;5027098;28;20207;-40
2022/07/11 12:31:46;;;;;;;2.05;1.20;;;;;;;;;;5040474;28;20289;-40
2022/07/11 12:34:16;;;;;;;1.33;0.93;;;;;;;;;;5022609;28;20714;-40
2022/07/11 12:36:43;;;;;;;1.20;0.82;;;;;;;;;;5026370;28;20230;-39
2022/07/11 12:39:10;;;;;;;0.80;0.80;;;;;;;;;;5030265;28;20211;-41
2022/07/11 12:41:37;;;;;;;1.23;1.13;;;;;;;;;;5031358;28;20211;-43
2022/07/11 12:46:49;;;;;;;0.70;0.70;;;;;;;;;;5042422;28;20244;-41
2022/07/11 12:49:18;;;;;;;0.85;0.75;;;;;;;;;;5025908;28;20731;-41
2022/07/11 12:51:45;;;;;;;0.82;0.82;;;;;;;;;;5024128;28;20210;-39
2022/07/11 12:54:13;;;;;;;1.20;1.10;;;;;;;;;;5042644;28;20214;-42
2022/07/11 12:56:41;;;;;;;1.40;0.90;;;;;;;;;;5036798;28;20696;-38
2022/07/11 12:59:19;;;;;;;2.47;0.90;;;;;;;;;;5033327;28;20218;-38
2022/07/11 13:01:55;;;;;;;0.80;0.80;;;;;;;;;;5039757;28;20205;-43
2022/07/11 13:04:36;;;;;;;1.27;1.00;;;;;;;;;;5026317;28;20205;-40
2022/07/11 13:10:10;;;;;;;2.45;1.00;;;;;;;;;;5035441;28;20304;-41
2022/07/11 13:12:38;;;;;;;1.15;1.00;;;;;;;;;;5030675;28;20246;-43
2022/07/11 13:15:13;;;;;;;0.93;0.93;;;;;;;;;;5029592;28;20229;-38
2022/07/11 13:17:40;;;;;;;3.65;1.00;;;;;;;;;;5039237;28;20699;-37
2022/07/11 13:20:12;;;;;;;1.15;1.05;;;;;;;;;;5034779;28;20301;-43
2022/07/11 13:22:39;;;;;;;1.00;1.00;;;;;;;;;;5039377;28;20212;-40
2022/07/11 13:25:07;;;;;;;3.60;1.27;;;;;;;;;;5040403;28;20217;-38
2022/07/11 13:27:34;;;;;;;1.40;1.30;;;;;;;;;;5034257;28;20222;-40
2022/07/11 13:30:04;;;;;;;1.40;1.05;;;;;;;;;;5022673;28;20231;-39
2022/07/11 13:32:31;;;;;;;1.58;1.17;;;;;;;;;;5028635;28;20206;-37
2022/07/11 13:34:58;;;;;;;0.90;0.90;;;;;;;;;;5036310;28;20643;-38
2022/07/11 13:37:27;;;;;;;1.20;1.15;;;;;;;;;;5044336;28;20224;-44
2022/07/11 13:39:54;;;;;;;1.77;1.13;;;;;;;;;;5056072;28;20562;-41
2022/07/11 13:42:21;;;;;;;1.50;1.40;;;;;;;;;;5040188;28;20199;-39
2022/07/11 13:44:48;;;;;;;2.25;1.15;;;;;;;;;;5038679;28;20218;-38
2022/07/11 13:47:15;;;;;;;1.40;1.30;;;;;;;;;;5031337;28;20233;-42
2022/07/11 13:49:43;;;;;;;1.20;1.10;;;;;;;;;;5034019;28;20214;-41
2022/07/11 13:52:11;;;;;;;1.35;1.25;;;;;;;;;;5034990;28;20565;-38
2022/07/11 13:54:39;;;;;;;1.42;1.33;;;;;;;;;;5034552;28;20206;-40
2022/07/11 13:57:07;;;;;;;1.25;1.20;;;;;;;;;;5032869;28;20222;-43
2022/07/11 13:59:40;;;;;;;2.97;1.88;;;;;;;;;;5035748;28;20209;-39
2022/07/11 14:02:07;;;;;;;1.95;1.20;;;;;;;;;;5032053;28;20507;-41
2022/07/11 14:04:34;;;;;;;1.13;1.08;;;;;;;;;;5024098;28;20206;-44
2022/07/11 14:07:01;;;;;;;1.40;1.30;;;;;;;;;;5038850;28;20232;-39
2022/07/11 14:09:29;;;;;;;2.75;2.50;;;;;;;;;;5053881;28;20225;-43
2022/07/11 14:11:57;;;;;;;8.38;7.45;;;;;;;;;;5054011;28;20257;-42
2022/07/11 14:14:24;;;;;;;1.70;1.60;;;;;;;;;;5038703;28;20205;-44
2022/07/11 14:16:51;;;;;;;1.60;1.50;;;;;;;;;;5042162;28;20235;-38
2022/07/11 14:19:18;;;;;;;2.20;2.00;;;;;;;;;;5026677;28;20229;-42
2022/07/11 14:21:46;;;;;;;1.33;1.30;;;;;;;;;;5026484;28;20217;-44
2022/07/11 14:24:13;;;;;;;2.83;1.83;;;;;;;;;;5032192;28;20217;-40
2022/07/11 14:26:41;;;;;;;2.67;1.88;;;;;;;;;;5029876;28;20254;-38
2022/07/11 14:29:10;;;;;;;1.42;1.33;;;;;;;;;;5027090;28;20203;-43
2022/07/11 14:31:38;;;;;;;2.15;1.60;;;;;;;;;;5033688;28;20222;-37
2022/07/11 14:34:05;;;;;;;1.42;1.33;;;;;;;;;;5027959;28;20897;-42
2022/07/11 14:36:33;;;;;;;2.15;1.95;;;;;;;;;;5038496;28;20241;-37
2022/07/11 14:39:00;;;;;;;3.30;1.40;;;;;;;;;;5043480;28;20477;-40
2022/07/11 14:41:27;;;;;;;1.80;1.58;;;;;;;;;;5033297;28;20256;-38
2022/07/11 14:43:54;;;;;;;1.42;1.30;;;;;;;;;;5024251;28;20218;-40
2022/07/11 14:46:22;;;;;;;1.83;1.17;;;;;;;;;;5029673;28;20256;-36
2022/07/11 14:48:50;;;;;;;2.00;1.17;;;;;;;;;;5028646;28;20202;-38
2022/07/11 14:51:17;;;;;;;1.40;1.30;;;;;;;;;;5022403;28;20222;-40
2022/07/11 14:53:44;;;;;;;1.73;1.63;;;;;;;;;;5033141;28;20216;-38
2022/07/11 14:56:11;;;;;;;2.25;1.75;;;;;;;;;;5024586;28;20242;-36
2022/07/11 14:58:38;;;;;;;1.45;1.30;;;;;;;;;;5026412;28;20286;-37
2022/07/11 15:01:05;;;;;;;2.28;2.10;;;;;;;;;;5026629;28;20652;-40
2022/07/11 15:03:39;;;;;;;1.67;1.58;;;;;;;;;;5032780;28;20210;-43
2022/07/11 15:06:06;;;;;;;2.53;1.70;;;;;;;;;;5032201;28;20207;-36
2022/07/11 15:14:04;;;;;;;2.42;2.03;;;;;;;;;;5023700;28;20218;-38
2022/07/11 15:16:31;;;;;;;2.83;1.48;;;;;;;;;;5028357;28;20288;-40